sensor_id;sensor_type;location;lat;lon;timestamp;P1;P2;P0
69224;PMS1003;56333;51.306;17.056;2023-05-07T00:01:39;8.50;5.20;
69224;PMS1003;56333;51.306;17.056;2023-05-07T00:03:10;6.10;5.20;
69224;PMS1003;56333;51.306;17.056;2023-05-07T00:04:39;6.50;5.20;
69224;PMS1003;56333;51.306;17.056;2023-05-07T00:06:08;6.10;4.90;
69224;PMS1003;56333;51.306;17.056;2023-05-07T00:07:38;7.50;5.20;
69224;PMS1003;56333;51.306;17.056;2023-05-07T00:09:08;7.20;5.50;
69224;PMS1003;56333;51.306;17.056;2023-05-07T00:10:37;5.80;5.00;
69224;PMS1003;56333;51.306;17.056;2023-05-07T00:12:06;6.10;5.10;
69224;PMS1003;56333;51.306;17.056;2023-05-07T00:13:35;7.70;5.80;
69224;PMS1003;56333;51.306;17.056;2023-05-07T00:15:06;7.60;5.90;
69224;PMS1003;56333;51.306;17.056;2023-05-07T00:16:35;8.00;5.70;
69224;PMS1003;56333;51.306;17.056;2023-05-07T00:18:04;7.90;5.90;
69224;PMS1003;56333;51.306;17.056;2023-05-07T00:19:33;6.80;5.50;
69224;PMS1003;56333;51.306;17.056;2023-05-07T00:21:03;7.60;6.10;
69224;PMS1003;56333;51.306;17.056;2023-05-07T00:22:32;7.40;5.80;
69224;PMS1003;56333;51.306;17.056;2023-05-07T00:24:00;7.30;5.60;
69224;PMS1003;56333;51.306;17.056;2023-05-07T00:25:29;8.50;5.90;
69224;PMS1003;56333;51.306;17.056;2023-05-07T00:26:58;7.10;5.70;
69224;PMS1003;56333;51.306;17.056;2023-05-07T00:28:27;7.00;5.70;
69224;PMS1003;56333;51.306;17.056;2023-05-07T00:29:56;8.90;5.60;
69224;PMS1003;56333;51.306;17.056;2023-05-07T00:31:25;7.60;5.50;
69224;PMS1003;56333;51.306;17.056;2023-05-07T00:32:54;7.20;6.00;
69224;PMS1003;56333;51.306;17.056;2023-05-07T00:34:23;8.00;6.00;
69224;PMS1003;56333;51.306;17.056;2023-05-07T00:35:52;9.00;6.60;
69224;PMS1003;56333;51.306;17.056;2023-05-07T00:37:21;9.80;6.60;
69224;PMS1003;56333;51.306;17.056;2023-05-07T00:38:50;8.60;6.70;
69224;PMS1003;56333;51.306;17.056;2023-05-07T00:40:19;9.00;6.80;
69224;PMS1003;56333;51.306;17.056;2023-05-07T00:41:48;8.40;6.80;
69224;PMS1003;56333;51.306;17.056;2023-05-07T00:43:17;8.50;6.60;
69224;PMS1003;56333;51.306;17.056;2023-05-07T00:44:46;8.80;7.30;
69224;PMS1003;56333;51.306;17.056;2023-05-07T00:46:15;8.90;7.20;
69224;PMS1003;56333;51.306;17.056;2023-05-07T00:47:45;11.20;7.30;
69224;PMS1003;56333;51.306;17.056;2023-05-07T00:49:13;9.30;6.90;
69224;PMS1003;56333;51.306;17.056;2023-05-07T00:50:44;10.80;6.80;
69224;PMS1003;56333;51.306;17.056;2023-05-07T00:52:15;8.80;6.80;
69224;PMS1003;56333;51.306;17.056;2023-05-07T00:53:44;8.60;6.80;
69224;PMS1003;56333;51.306;17.056;2023-05-07T00:55:13;7.70;6.60;
69224;PMS1003;56333;51.306;17.056;2023-05-07T00:56:42;8.10;6.50;
69224;PMS1003;56333;51.306;17.056;2023-05-07T00:58:11;8.80;6.60;
69224;PMS1003;56333;51.306;17.056;2023-05-07T00:59:40;8.10;6.40;
69224;PMS1003;56333;51.306;17.056;2023-05-07T01:01:10;9.00;6.00;
69224;PMS1003;56333;51.306;17.056;2023-05-07T01:04:08;8.50;6.30;
69224;PMS1003;56333;51.306;17.056;2023-05-07T01:05:37;8.40;6.50;
69224;PMS1003;56333;51.306;17.056;2023-05-07T01:07:07;9.30;6.40;
69224;PMS1003;56333;51.306;17.056;2023-05-07T01:08:36;8.30;6.10;
69224;PMS1003;56333;51.306;17.056;2023-05-07T01:10:07;8.30;6.50;
69224;PMS1003;56333;51.306;17.056;2023-05-07T01:13:05;7.80;6.10;
69224;PMS1003;56333;51.306;17.056;2023-05-07T01:14:34;8.90;6.80;
69224;PMS1003;56333;51.306;17.056;2023-05-07T01:16:04;9.00;6.80;
69224;PMS1003;56333;51.306;17.056;2023-05-07T01:17:36;8.20;6.80;
69224;PMS1003;56333;51.306;17.056;2023-05-07T01:19:07;9.70;6.90;
69224;PMS1003;56333;51.306;17.056;2023-05-07T01:20:40;8.30;6.60;
69224;PMS1003;56333;51.306;17.056;2023-05-07T01:22:10;8.30;7.00;
69224;PMS1003;56333;51.306;17.056;2023-05-07T01:23:49;8.50;6.70;
69224;PMS1003;56333;51.306;17.056;2023-05-07T01:25:19;8.50;6.60;
69224;PMS1003;56333;51.306;17.056;2023-05-07T01:26:50;8.10;6.40;
69224;PMS1003;56333;51.306;17.056;2023-05-07T01:28:19;8.60;6.40;
69224;PMS1003;56333;51.306;17.056;2023-05-07T01:29:49;7.70;6.20;
69224;PMS1003;56333;51.306;17.056;2023-05-07T01:31:19;8.90;6.80;
69224;PMS1003;56333;51.306;17.056;2023-05-07T01:32:53;7.40;6.20;
69224;PMS1003;56333;51.306;17.056;2023-05-07T01:34:26;9.80;6.30;
69224;PMS1003;56333;51.306;17.056;2023-05-07T01:35:57;8.00;6.20;
69224;PMS1003;56333;51.306;17.056;2023-05-07T01:37:30;7.80;6.20;
69224;PMS1003;56333;51.306;17.056;2023-05-07T01:39:00;8.60;6.20;
69224;PMS1003;56333;51.306;17.056;2023-05-07T01:40:30;8.10;6.10;
69224;PMS1003;56333;51.306;17.056;2023-05-07T01:42:00;7.90;6.10;
69224;PMS1003;56333;51.306;17.056;2023-05-07T01:43:29;6.40;5.80;
69224;PMS1003;56333;51.306;17.056;2023-05-07T01:44:59;9.80;6.00;
69224;PMS1003;56333;51.306;17.056;2023-05-07T01:46:29;6.70;5.90;
69224;PMS1003;56333;51.306;17.056;2023-05-07T01:47:59;8.60;6.10;
69224;PMS1003;56333;51.306;17.056;2023-05-07T01:49:29;8.90;6.30;
69224;PMS1003;56333;51.306;17.056;2023-05-07T01:50:59;7.80;6.40;
69224;PMS1003;56333;51.306;17.056;2023-05-07T01:52:28;7.80;5.90;
69224;PMS1003;56333;51.306;17.056;2023-05-07T01:53:58;8.50;6.10;
69224;PMS1003;56333;51.306;17.056;2023-05-07T01:55:27;8.10;6.00;
69224;PMS1003;56333;51.306;17.056;2023-05-07T01:56:57;9.40;6.30;
69224;PMS1003;56333;51.306;17.056;2023-05-07T01:58:27;8.20;6.30;
69224;PMS1003;56333;51.306;17.056;2023-05-07T01:59:55;6.90;5.90;
69224;PMS1003;56333;51.306;17.056;2023-05-07T02:01:24;7.50;6.10;
69224;PMS1003;56333;51.306;17.056;2023-05-07T02:02:53;9.10;6.10;
69224;PMS1003;56333;51.306;17.056;2023-05-07T02:04:30;8.70;6.50;
69224;PMS1003;56333;51.306;17.056;2023-05-07T02:05:58;7.70;6.00;
69224;PMS1003;56333;51.306;17.056;2023-05-07T02:07:31;7.60;6.50;
69224;PMS1003;56333;51.306;17.056;2023-05-07T02:09:00;8.00;6.40;
69224;PMS1003;56333;51.306;17.056;2023-05-07T02:10:29;9.50;6.90;
69224;PMS1003;56333;51.306;17.056;2023-05-07T02:11:59;8.40;7.10;
69224;PMS1003;56333;51.306;17.056;2023-05-07T02:13:32;8.40;7.10;
69224;PMS1003;56333;51.306;17.056;2023-05-07T02:15:01;8.30;7.20;
69224;PMS1003;56333;51.306;17.056;2023-05-07T02:16:31;9.20;7.40;
69224;PMS1003;56333;51.306;17.056;2023-05-07T02:18:04;9.30;7.30;
69224;PMS1003;56333;51.306;17.056;2023-05-07T02:19:35;8.90;7.00;
69224;PMS1003;56333;51.306;17.056;2023-05-07T02:21:04;10.50;7.10;
69224;PMS1003;56333;51.306;17.056;2023-05-07T02:22:35;7.70;6.90;
69224;PMS1003;56333;51.306;17.056;2023-05-07T02:24:04;9.30;6.90;
69224;PMS1003;56333;51.306;17.056;2023-05-07T02:25:33;8.30;6.80;
69224;PMS1003;56333;51.306;17.056;2023-05-07T02:27:02;8.80;6.90;
69224;PMS1003;56333;51.306;17.056;2023-05-07T02:28:32;8.30;6.90;
69224;PMS1003;56333;51.306;17.056;2023-05-07T02:30:03;8.00;6.60;
69224;PMS1003;56333;51.306;17.056;2023-05-07T02:31:34;8.10;6.80;
69224;PMS1003;56333;51.306;17.056;2023-05-07T02:33:03;9.20;6.60;
69224;PMS1003;56333;51.306;17.056;2023-05-07T02:34:32;11.00;6.20;
69224;PMS1003;56333;51.306;17.056;2023-05-07T02:36:08;8.00;6.40;
69224;PMS1003;56333;51.306;17.056;2023-05-07T02:37:46;7.70;6.30;
69224;PMS1003;56333;51.306;17.056;2023-05-07T02:39:16;7.80;6.20;
69224;PMS1003;56333;51.306;17.056;2023-05-07T02:40:45;7.80;6.80;
69224;PMS1003;56333;51.306;17.056;2023-05-07T02:42:15;8.00;6.30;
69224;PMS1003;56333;51.306;17.056;2023-05-07T02:43:44;8.10;6.10;
69224;PMS1003;56333;51.306;17.056;2023-05-07T02:45:13;7.80;6.60;
69224;PMS1003;56333;51.306;17.056;2023-05-07T02:46:42;8.30;7.00;
69224;PMS1003;56333;51.306;17.056;2023-05-07T02:48:12;8.50;7.40;
69224;PMS1003;56333;51.306;17.056;2023-05-07T02:49:41;8.00;7.00;
69224;PMS1003;56333;51.306;17.056;2023-05-07T02:51:10;7.50;6.20;
69224;PMS1003;56333;51.306;17.056;2023-05-07T02:52:40;8.20;6.30;
69224;PMS1003;56333;51.306;17.056;2023-05-07T02:54:09;8.10;6.60;
69224;PMS1003;56333;51.306;17.056;2023-05-07T02:55:38;8.90;6.70;
69224;PMS1003;56333;51.306;17.056;2023-05-07T02:57:07;8.80;6.60;
69224;PMS1003;56333;51.306;17.056;2023-05-07T02:58:36;8.80;6.70;
69224;PMS1003;56333;51.306;17.056;2023-05-07T03:00:17;9.10;6.60;
69224;PMS1003;56333;51.306;17.056;2023-05-07T03:01:56;7.30;5.80;
69224;PMS1003;56333;51.306;17.056;2023-05-07T03:03:25;7.90;6.40;
69224;PMS1003;56333;51.306;17.056;2023-05-07T03:04:54;7.70;6.40;
69224;PMS1003;56333;51.306;17.056;2023-05-07T03:06:23;8.90;6.50;
69224;PMS1003;56333;51.306;17.056;2023-05-07T03:07:52;8.60;6.20;
69224;PMS1003;56333;51.306;17.056;2023-05-07T03:09:21;7.80;6.40;
69224;PMS1003;56333;51.306;17.056;2023-05-07T03:10:50;7.60;6.00;
69224;PMS1003;56333;51.306;17.056;2023-05-07T03:12:19;9.50;6.60;
69224;PMS1003;56333;51.306;17.056;2023-05-07T03:13:48;8.10;6.60;
69224;PMS1003;56333;51.306;17.056;2023-05-07T03:15:18;8.00;6.70;
69224;PMS1003;56333;51.306;17.056;2023-05-07T03:16:48;7.80;6.70;
69224;PMS1003;56333;51.306;17.056;2023-05-07T03:18:18;9.80;7.80;
69224;PMS1003;56333;51.306;17.056;2023-05-07T03:19:47;8.60;6.80;
69224;PMS1003;56333;51.306;17.056;2023-05-07T03:21:16;9.10;6.80;
69224;PMS1003;56333;51.306;17.056;2023-05-07T03:22:44;8.70;6.60;
69224;PMS1003;56333;51.306;17.056;2023-05-07T03:24:13;7.50;6.20;
69224;PMS1003;56333;51.306;17.056;2023-05-07T03:25:42;7.10;6.10;
69224;PMS1003;56333;51.306;17.056;2023-05-07T03:27:11;8.30;6.30;
69224;PMS1003;56333;51.306;17.056;2023-05-07T03:28:40;8.40;6.90;
69224;PMS1003;56333;51.306;17.056;2023-05-07T03:30:13;7.80;6.80;
69224;PMS1003;56333;51.306;17.056;2023-05-07T03:31:42;8.30;6.90;
69224;PMS1003;56333;51.306;17.056;2023-05-07T03:33:12;8.30;7.10;
69224;PMS1003;56333;51.306;17.056;2023-05-07T03:34:41;8.40;7.00;
69224;PMS1003;56333;51.306;17.056;2023-05-07T03:36:10;9.20;6.90;
69224;PMS1003;56333;51.306;17.056;2023-05-07T03:37:39;7.90;7.00;
69224;PMS1003;56333;51.306;17.056;2023-05-07T03:39:08;8.30;6.60;
69224;PMS1003;56333;51.306;17.056;2023-05-07T03:40:39;8.60;6.50;
69224;PMS1003;56333;51.306;17.056;2023-05-07T03:42:08;10.30;6.40;
69224;PMS1003;56333;51.306;17.056;2023-05-07T03:43:37;8.20;6.10;
69224;PMS1003;56333;51.306;17.056;2023-05-07T03:45:10;7.10;6.30;
69224;PMS1003;56333;51.306;17.056;2023-05-07T03:46:42;8.20;6.10;
69224;PMS1003;56333;51.306;17.056;2023-05-07T03:48:11;8.00;5.60;
69224;PMS1003;56333;51.306;17.056;2023-05-07T03:49:40;7.90;6.30;
69224;PMS1003;56333;51.306;17.056;2023-05-07T03:51:09;7.70;6.10;
69224;PMS1003;56333;51.306;17.056;2023-05-07T03:52:39;7.50;6.30;
69224;PMS1003;56333;51.306;17.056;2023-05-07T03:54:08;6.80;6.00;
69224;PMS1003;56333;51.306;17.056;2023-05-07T03:55:38;6.30;5.60;
69224;PMS1003;56333;51.306;17.056;2023-05-07T03:57:07;7.30;5.80;
69224;PMS1003;56333;51.306;17.056;2023-05-07T03:58:36;6.60;5.00;
69224;PMS1003;56333;51.306;17.056;2023-05-07T04:00:10;7.60;5.50;
69224;PMS1003;56333;51.306;17.056;2023-05-07T04:01:49;7.00;5.60;
69224;PMS1003;56333;51.306;17.056;2023-05-07T04:03:18;5.80;4.80;
69224;PMS1003;56333;51.306;17.056;2023-05-07T04:04:47;6.90;5.30;
69224;PMS1003;56333;51.306;17.056;2023-05-07T04:06:16;7.70;5.10;
69224;PMS1003;56333;51.306;17.056;2023-05-07T04:07:46;6.60;5.70;
69224;PMS1003;56333;51.306;17.056;2023-05-07T04:09:19;6.40;5.50;
69224;PMS1003;56333;51.306;17.056;2023-05-07T04:10:48;6.80;5.50;
69224;PMS1003;56333;51.306;17.056;2023-05-07T04:12:17;7.20;5.70;
69224;PMS1003;56333;51.306;17.056;2023-05-07T04:13:46;6.90;5.60;
69224;PMS1003;56333;51.306;17.056;2023-05-07T04:15:17;7.10;5.30;
69224;PMS1003;56333;51.306;17.056;2023-05-07T04:16:46;6.90;5.70;
69224;PMS1003;56333;51.306;17.056;2023-05-07T04:18:15;6.90;5.40;
69224;PMS1003;56333;51.306;17.056;2023-05-07T04:19:46;7.70;5.80;
69224;PMS1003;56333;51.306;17.056;2023-05-07T04:21:19;7.70;5.70;
69224;PMS1003;56333;51.306;17.056;2023-05-07T04:22:48;6.30;5.30;
69224;PMS1003;56333;51.306;17.056;2023-05-07T04:24:18;7.20;5.50;
69224;PMS1003;56333;51.306;17.056;2023-05-07T04:25:47;6.40;4.80;
69224;PMS1003;56333;51.306;17.056;2023-05-07T04:27:21;6.60;5.10;
69224;PMS1003;56333;51.306;17.056;2023-05-07T04:28:52;6.30;5.10;
69224;PMS1003;56333;51.306;17.056;2023-05-07T04:30:21;7.20;5.20;
69224;PMS1003;56333;51.306;17.056;2023-05-07T04:31:50;7.60;5.40;
69224;PMS1003;56333;51.306;17.056;2023-05-07T04:33:18;6.80;5.30;
69224;PMS1003;56333;51.306;17.056;2023-05-07T04:34:47;6.30;5.20;
69224;PMS1003;56333;51.306;17.056;2023-05-07T04:36:16;5.60;5.00;
69224;PMS1003;56333;51.306;17.056;2023-05-07T04:37:52;7.10;4.90;
69224;PMS1003;56333;51.306;17.056;2023-05-07T04:39:21;6.50;4.70;
69224;PMS1003;56333;51.306;17.056;2023-05-07T04:40:50;7.40;4.60;
69224;PMS1003;56333;51.306;17.056;2023-05-07T04:42:20;5.70;4.30;
69224;PMS1003;56333;51.306;17.056;2023-05-07T04:43:50;5.20;4.30;
69224;PMS1003;56333;51.306;17.056;2023-05-07T04:45:21;5.60;4.30;
69224;PMS1003;56333;51.306;17.056;2023-05-07T04:46:50;6.40;4.20;
69224;PMS1003;56333;51.306;17.056;2023-05-07T04:48:19;7.10;4.60;
69224;PMS1003;56333;51.306;17.056;2023-05-07T04:49:49;6.20;4.60;
69224;PMS1003;56333;51.306;17.056;2023-05-07T04:51:18;5.10;4.40;
69224;PMS1003;56333;51.306;17.056;2023-05-07T04:52:47;5.60;4.30;
69224;PMS1003;56333;51.306;17.056;2023-05-07T04:54:17;6.40;4.60;
69224;PMS1003;56333;51.306;17.056;2023-05-07T04:55:46;5.80;4.10;
69224;PMS1003;56333;51.306;17.056;2023-05-07T04:57:15;4.90;3.90;
69224;PMS1003;56333;51.306;17.056;2023-05-07T04:58:43;5.30;4.30;
69224;PMS1003;56333;51.306;17.056;2023-05-07T05:00:14;7.10;4.50;
69224;PMS1003;56333;51.306;17.056;2023-05-07T05:01:46;5.40;4.10;
69224;PMS1003;56333;51.306;17.056;2023-05-07T05:03:14;6.30;4.20;
69224;PMS1003;56333;51.306;17.056;2023-05-07T05:04:43;5.70;4.90;
69224;PMS1003;56333;51.306;17.056;2023-05-07T05:06:12;6.50;4.60;
69224;PMS1003;56333;51.306;17.056;2023-05-07T05:07:41;6.10;4.20;
69224;PMS1003;56333;51.306;17.056;2023-05-07T05:09:11;4.80;3.90;
69224;PMS1003;56333;51.306;17.056;2023-05-07T05:10:40;4.60;3.70;
69224;PMS1003;56333;51.306;17.056;2023-05-07T05:12:09;5.30;3.90;
69224;PMS1003;56333;51.306;17.056;2023-05-07T05:13:37;6.30;4.20;
69224;PMS1003;56333;51.306;17.056;2023-05-07T05:15:13;8.20;4.40;
69224;PMS1003;56333;51.306;17.056;2023-05-07T05:16:43;5.60;4.80;
69224;PMS1003;56333;51.306;17.056;2023-05-07T05:18:12;5.70;4.70;
69224;PMS1003;56333;51.306;17.056;2023-05-07T05:19:41;5.70;4.80;
69224;PMS1003;56333;51.306;17.056;2023-05-07T05:21:10;5.90;4.80;
69224;PMS1003;56333;51.306;17.056;2023-05-07T05:22:40;5.90;4.60;
69224;PMS1003;56333;51.306;17.056;2023-05-07T05:24:10;5.60;4.60;
69224;PMS1003;56333;51.306;17.056;2023-05-07T05:25:39;5.80;4.60;
69224;PMS1003;56333;51.306;17.056;2023-05-07T05:27:09;6.90;4.90;
69224;PMS1003;56333;51.306;17.056;2023-05-07T05:28:38;5.30;4.00;
69224;PMS1003;56333;51.306;17.056;2023-05-07T05:30:10;5.70;4.10;
69224;PMS1003;56333;51.306;17.056;2023-05-07T05:31:40;5.60;4.60;
69224;PMS1003;56333;51.306;17.056;2023-05-07T05:33:09;6.40;4.80;
69224;PMS1003;56333;51.306;17.056;2023-05-07T05:34:38;5.70;4.70;
69224;PMS1003;56333;51.306;17.056;2023-05-07T05:36:10;6.80;4.70;
69224;PMS1003;56333;51.306;17.056;2023-05-07T05:37:39;5.70;4.70;
69224;PMS1003;56333;51.306;17.056;2023-05-07T05:39:08;6.50;4.80;
69224;PMS1003;56333;51.306;17.056;2023-05-07T05:40:37;5.90;4.70;
69224;PMS1003;56333;51.306;17.056;2023-05-07T05:42:06;6.60;4.50;
69224;PMS1003;56333;51.306;17.056;2023-05-07T05:43:36;5.90;4.40;
69224;PMS1003;56333;51.306;17.056;2023-05-07T05:45:05;5.00;4.50;
69224;PMS1003;56333;51.306;17.056;2023-05-07T05:46:36;5.70;4.80;
69224;PMS1003;56333;51.306;17.056;2023-05-07T05:48:06;5.20;4.10;
69224;PMS1003;56333;51.306;17.056;2023-05-07T05:49:35;6.10;4.90;
69224;PMS1003;56333;51.306;17.056;2023-05-07T05:51:04;6.10;5.20;
69224;PMS1003;56333;51.306;17.056;2023-05-07T05:52:34;6.30;5.50;
69224;PMS1003;56333;51.306;17.056;2023-05-07T05:54:03;7.10;5.80;
69224;PMS1003;56333;51.306;17.056;2023-05-07T05:55:32;6.90;5.90;
69224;PMS1003;56333;51.306;17.056;2023-05-07T05:57:00;7.90;6.50;
69224;PMS1003;56333;51.306;17.056;2023-05-07T05:58:31;12.20;8.20;
69224;PMS1003;56333;51.306;17.056;2023-05-07T06:00:03;14.80;10.40;
69224;PMS1003;56333;51.306;17.056;2023-05-07T06:01:44;18.10;12.40;
69224;PMS1003;56333;51.306;17.056;2023-05-07T06:03:13;14.70;10.80;
69224;PMS1003;56333;51.306;17.056;2023-05-07T06:04:43;17.80;13.80;
69224;PMS1003;56333;51.306;17.056;2023-05-07T06:06:13;12.70;9.90;
69224;PMS1003;56333;51.306;17.056;2023-05-07T06:07:43;10.30;7.60;
69224;PMS1003;56333;51.306;17.056;2023-05-07T06:09:12;8.30;7.10;
69224;PMS1003;56333;51.306;17.056;2023-05-07T06:10:43;8.30;6.20;
69224;PMS1003;56333;51.306;17.056;2023-05-07T06:12:12;7.30;6.40;
69224;PMS1003;56333;51.306;17.056;2023-05-07T06:13:41;6.70;6.00;
69224;PMS1003;56333;51.306;17.056;2023-05-07T06:15:12;7.50;5.70;
69224;PMS1003;56333;51.306;17.056;2023-05-07T06:16:41;7.00;5.40;
69224;PMS1003;56333;51.306;17.056;2023-05-07T06:18:11;6.70;5.00;
69224;PMS1003;56333;51.306;17.056;2023-05-07T06:19:40;6.10;4.80;
69224;PMS1003;56333;51.306;17.056;2023-05-07T06:21:09;6.10;4.90;
69224;PMS1003;56333;51.306;17.056;2023-05-07T06:22:38;6.30;4.50;
69224;PMS1003;56333;51.306;17.056;2023-05-07T06:24:09;6.20;4.50;
69224;PMS1003;56333;51.306;17.056;2023-05-07T06:25:38;5.80;4.80;
69224;PMS1003;56333;51.306;17.056;2023-05-07T06:27:07;5.10;4.50;
69224;PMS1003;56333;51.306;17.056;2023-05-07T06:28:36;5.40;4.30;
69224;PMS1003;56333;51.306;17.056;2023-05-07T06:30:10;5.40;4.20;
69224;PMS1003;56333;51.306;17.056;2023-05-07T06:31:40;4.70;4.00;
69224;PMS1003;56333;51.306;17.056;2023-05-07T06:33:09;6.10;3.80;
69224;PMS1003;56333;51.306;17.056;2023-05-07T06:34:38;5.10;3.80;
69224;PMS1003;56333;51.306;17.056;2023-05-07T06:36:09;4.60;3.60;
69224;PMS1003;56333;51.306;17.056;2023-05-07T06:37:40;4.90;3.60;
69224;PMS1003;56333;51.306;17.056;2023-05-07T06:39:15;4.40;3.80;
69224;PMS1003;56333;51.306;17.056;2023-05-07T06:40:44;4.60;3.80;
69224;PMS1003;56333;51.306;17.056;2023-05-07T06:42:16;4.70;3.90;
69224;PMS1003;56333;51.306;17.056;2023-05-07T06:43:47;4.70;3.90;
69224;PMS1003;56333;51.306;17.056;2023-05-07T06:45:30;6.20;4.00;
69224;PMS1003;56333;51.306;17.056;2023-05-07T06:46:59;5.10;3.80;
69224;PMS1003;56333;51.306;17.056;2023-05-07T06:48:28;6.20;4.30;
69224;PMS1003;56333;51.306;17.056;2023-05-07T06:50:00;5.00;4.30;
69224;PMS1003;56333;51.306;17.056;2023-05-07T06:51:29;5.20;4.30;
69224;PMS1003;56333;51.306;17.056;2023-05-07T06:53:01;5.40;4.60;
69224;PMS1003;56333;51.306;17.056;2023-05-07T06:54:32;5.10;4.30;
69224;PMS1003;56333;51.306;17.056;2023-05-07T06:56:02;6.30;4.70;
69224;PMS1003;56333;51.306;17.056;2023-05-07T06:57:31;5.70;4.50;
69224;PMS1003;56333;51.306;17.056;2023-05-07T06:59:01;5.10;4.10;
69224;PMS1003;56333;51.306;17.056;2023-05-07T07:00:34;5.20;4.40;
69224;PMS1003;56333;51.306;17.056;2023-05-07T07:02:03;5.70;4.50;
69224;PMS1003;56333;51.306;17.056;2023-05-07T07:03:32;6.30;4.60;
69224;PMS1003;56333;51.306;17.056;2023-05-07T07:05:01;5.60;4.90;
69224;PMS1003;56333;51.306;17.056;2023-05-07T07:06:31;7.50;4.90;
69224;PMS1003;56333;51.306;17.056;2023-05-07T07:08:01;5.90;5.30;
69224;PMS1003;56333;51.306;17.056;2023-05-07T07:09:30;6.40;5.40;
69224;PMS1003;56333;51.306;17.056;2023-05-07T07:11:00;7.20;5.90;
69224;PMS1003;56333;51.306;17.056;2023-05-07T07:12:29;8.50;5.60;
69224;PMS1003;56333;51.306;17.056;2023-05-07T07:13:58;6.60;5.60;
69224;PMS1003;56333;51.306;17.056;2023-05-07T07:15:28;5.80;5.20;
69224;PMS1003;56333;51.306;17.056;2023-05-07T07:16:58;7.90;5.30;
69224;PMS1003;56333;51.306;17.056;2023-05-07T07:18:27;6.80;5.30;
69224;PMS1003;56333;51.306;17.056;2023-05-07T07:19:58;6.00;4.90;
69224;PMS1003;56333;51.306;17.056;2023-05-07T07:21:29;5.50;4.90;
69224;PMS1003;56333;51.306;17.056;2023-05-07T07:22:59;5.80;5.00;
69224;PMS1003;56333;51.306;17.056;2023-05-07T07:24:29;6.00;5.20;
69224;PMS1003;56333;51.306;17.056;2023-05-07T07:27:27;8.30;5.60;
69224;PMS1003;56333;51.306;17.056;2023-05-07T07:28:56;6.00;5.40;
69224;PMS1003;56333;51.306;17.056;2023-05-07T07:30:26;6.80;5.80;
69224;PMS1003;56333;51.306;17.056;2023-05-07T07:31:56;5.60;5.00;
69224;PMS1003;56333;51.306;17.056;2023-05-07T07:33:25;6.00;5.00;
69224;PMS1003;56333;51.306;17.056;2023-05-07T07:34:55;6.00;5.10;
69224;PMS1003;56333;51.306;17.056;2023-05-07T07:36:26;6.30;5.50;
69224;PMS1003;56333;51.306;17.056;2023-05-07T07:37:56;6.60;5.60;
69224;PMS1003;56333;51.306;17.056;2023-05-07T07:39:25;8.20;6.10;
69224;PMS1003;56333;51.306;17.056;2023-05-07T07:40:55;7.10;6.40;
69224;PMS1003;56333;51.306;17.056;2023-05-07T07:42:24;6.90;6.20;
69224;PMS1003;56333;51.306;17.056;2023-05-07T07:43:53;7.90;6.40;
69224;PMS1003;56333;51.306;17.056;2023-05-07T07:45:22;10.90;7.80;
69224;PMS1003;56333;51.306;17.056;2023-05-07T07:46:52;10.70;8.90;
69224;PMS1003;56333;51.306;17.056;2023-05-07T07:48:21;9.60;8.00;
69224;PMS1003;56333;51.306;17.056;2023-05-07T07:49:51;8.10;7.20;
69224;PMS1003;56333;51.306;17.056;2023-05-07T07:51:19;8.20;7.10;
69224;PMS1003;56333;51.306;17.056;2023-05-07T07:52:49;14.60;11.90;
69224;PMS1003;56333;51.306;17.056;2023-05-07T07:54:19;23.60;18.10;
69224;PMS1003;56333;51.306;17.056;2023-05-07T07:55:48;9.30;7.90;
69224;PMS1003;56333;51.306;17.056;2023-05-07T07:57:19;13.20;10.50;
69224;PMS1003;56333;51.306;17.056;2023-05-07T07:58:48;23.80;16.90;
69224;PMS1003;56333;51.306;17.056;2023-05-07T08:00:19;12.10;9.60;
69224;PMS1003;56333;51.306;17.056;2023-05-07T08:01:49;10.10;8.30;
69224;PMS1003;56333;51.306;17.056;2023-05-07T08:03:22;8.90;7.30;
69224;PMS1003;56333;51.306;17.056;2023-05-07T08:04:53;9.70;7.70;
69224;PMS1003;56333;51.306;17.056;2023-05-07T08:06:23;9.40;7.70;
69224;PMS1003;56333;51.306;17.056;2023-05-07T08:07:52;9.50;8.10;
69224;PMS1003;56333;51.306;17.056;2023-05-07T08:09:26;8.80;7.90;
69224;PMS1003;56333;51.306;17.056;2023-05-07T08:10:55;10.90;9.80;
69224;PMS1003;56333;51.306;17.056;2023-05-07T08:12:27;10.50;9.40;
69224;PMS1003;56333;51.306;17.056;2023-05-07T08:13:57;8.40;7.60;
69224;PMS1003;56333;51.306;17.056;2023-05-07T08:15:26;9.20;7.60;
69224;PMS1003;56333;51.306;17.056;2023-05-07T08:16:55;8.80;7.30;
69224;PMS1003;56333;51.306;17.056;2023-05-07T08:18:24;10.50;9.40;
69224;PMS1003;56333;51.306;17.056;2023-05-07T08:19:55;8.30;6.90;
69224;PMS1003;56333;51.306;17.056;2023-05-07T08:21:23;8.30;7.40;
69224;PMS1003;56333;51.306;17.056;2023-05-07T08:22:54;9.40;7.90;
69224;PMS1003;56333;51.306;17.056;2023-05-07T08:24:23;22.80;20.60;
69224;PMS1003;56333;51.306;17.056;2023-05-07T08:25:51;11.00;8.60;
69224;PMS1003;56333;51.306;17.056;2023-05-07T08:27:20;10.30;8.90;
69224;PMS1003;56333;51.306;17.056;2023-05-07T08:28:49;9.00;7.20;
69224;PMS1003;56333;51.306;17.056;2023-05-07T08:30:19;8.70;6.70;
69224;PMS1003;56333;51.306;17.056;2023-05-07T08:31:48;6.70;5.90;
69224;PMS1003;56333;51.306;17.056;2023-05-07T08:33:17;7.20;6.30;
69224;PMS1003;56333;51.306;17.056;2023-05-07T08:34:46;8.50;6.10;
69224;PMS1003;56333;51.306;17.056;2023-05-07T08:36:15;7.50;6.20;
69224;PMS1003;56333;51.306;17.056;2023-05-07T08:37:45;7.00;6.10;
69224;PMS1003;56333;51.306;17.056;2023-05-07T08:39:15;7.60;6.50;
69224;PMS1003;56333;51.306;17.056;2023-05-07T08:40:44;7.60;6.00;
69224;PMS1003;56333;51.306;17.056;2023-05-07T08:42:17;6.90;6.20;
69224;PMS1003;56333;51.306;17.056;2023-05-07T08:43:49;7.50;5.80;
69224;PMS1003;56333;51.306;17.056;2023-05-07T08:45:20;8.10;6.00;
69224;PMS1003;56333;51.306;17.056;2023-05-07T08:46:49;7.10;6.10;
69224;PMS1003;56333;51.306;17.056;2023-05-07T08:48:24;6.90;6.10;
69224;PMS1003;56333;51.306;17.056;2023-05-07T08:49:59;6.50;5.30;
69224;PMS1003;56333;51.306;17.056;2023-05-07T08:51:28;7.50;5.80;
69224;PMS1003;56333;51.306;17.056;2023-05-07T08:52:58;5.60;5.00;
69224;PMS1003;56333;51.306;17.056;2023-05-07T08:54:27;7.40;5.90;
69224;PMS1003;56333;51.306;17.056;2023-05-07T08:55:56;7.70;5.70;
69224;PMS1003;56333;51.306;17.056;2023-05-07T08:57:25;13.70;8.80;
69224;PMS1003;56333;51.306;17.056;2023-05-07T08:58:54;14.40;9.30;
69224;PMS1003;56333;51.306;17.056;2023-05-07T09:00:25;19.00;11.20;
69224;PMS1003;56333;51.306;17.056;2023-05-07T09:01:54;17.80;10.50;
69224;PMS1003;56333;51.306;17.056;2023-05-07T09:03:23;18.10;10.80;
69224;PMS1003;56333;51.306;17.056;2023-05-07T09:04:53;16.30;9.70;
69224;PMS1003;56333;51.306;17.056;2023-05-07T09:06:22;18.30;11.00;
69224;PMS1003;56333;51.306;17.056;2023-05-07T09:07:53;15.70;9.20;
69224;PMS1003;56333;51.306;17.056;2023-05-07T09:09:24;14.10;9.10;
69224;PMS1003;56333;51.306;17.056;2023-05-07T09:10:53;12.60;8.10;
69224;PMS1003;56333;51.306;17.056;2023-05-07T09:12:23;9.90;6.90;
69224;PMS1003;56333;51.306;17.056;2023-05-07T09:13:54;8.60;6.80;
69224;PMS1003;56333;51.306;17.056;2023-05-07T09:15:27;6.90;5.40;